sensor_id;sensor_type;location;lat;lon;timestamp;pressure;altitude;pressure_sealevel;temperature;humidity
71151;BME280;59071;42.138;24.768;2023-02-04T00:01:58;99613.66;;;4.73;47.51
71151;BME280;59071;42.138;24.768;2023-02-04T00:04:23;99609.38;;;4.64;47.50
71151;BME280;59071;42.138;24.768;2023-02-04T00:06:48;99607.34;;;4.90;46.60
71151;BME280;59071;42.138;24.768;2023-02-04T00:09:14;99610.38;;;4.71;47.84
71151;BME280;59071;42.138;24.768;2023-02-04T00:11:40;99603.44;;;4.70;47.93
71151;BME280;59071;42.138;24.768;2023-02-04T00:14:05;99599.09;;;4.85;47.66
71151;BME280;59071;42.138;24.768;2023-02-04T00:16:31;99590.53;;;4.92;47.35
71151;BME280;59071;42.138;24.768;2023-02-04T00:18:56;99587.81;;;4.60;47.64
71151;BME280;59071;42.138;24.768;2023-02-04T00:21:21;99581.56;;;4.53;47.85
71151;BME280;59071;42.138;24.768;2023-02-04T00:23:47;99588.78;;;4.67;47.98
71151;BME280;59071;42.138;24.768;2023-02-04T00:26:13;99587.47;;;4.63;48.00
71151;BME280;59071;42.138;24.768;2023-02-04T00:28:39;99585.66;;;4.64;47.50
71151;BME280;59071;42.138;24.768;2023-02-04T00:31:04;99582.53;;;4.60;47.87
71151;BME280;59071;42.138;24.768;2023-02-04T00:33:29;99578.75;;;4.55;47.77
71151;BME280;59071;42.138;24.768;2023-02-04T00:35:55;99576.41;;;4.76;47.43
71151;BME280;59071;42.138;24.768;2023-02-04T00:38:20;99574.19;;;4.96;47.02
71151;BME280;59071;42.138;24.768;2023-02-04T00:40:46;99575.94;;;4.64;47.00
71151;BME280;59071;42.138;24.768;2023-02-04T00:43:12;99573.50;;;4.55;47.47
71151;BME280;59071;42.138;24.768;2023-02-04T00:45:37;99570.53;;;4.58;47.64
71151;BME280;59071;42.138;24.768;2023-02-04T00:48:02;99578.28;;;4.59;47.42
71151;BME280;59071;42.138;24.768;2023-02-04T00:50:28;99574.94;;;4.65;47.59
71151;BME280;59071;42.138;24.768;2023-02-04T00:52:53;99571.22;;;4.91;48.54
71151;BME280;59071;42.138;24.768;2023-02-04T00:55:18;99572.56;;;5.26;48.04
71151;BME280;59071;42.138;24.768;2023-02-04T00:57:44;99564.31;;;5.29;47.18
71151;BME280;59071;42.138;24.768;2023-02-04T01:00:11;99561.06;;;5.19;47.94
71151;BME280;59071;42.138;24.768;2023-02-04T01:02:37;99553.44;;;4.93;48.02
71151;BME280;59071;42.138;24.768;2023-02-04T01:05:04;99551.28;;;5.28;48.12
71151;BME280;59071;42.138;24.768;2023-02-04T01:07:30;99550.66;;;5.18;47.89
71151;BME280;59071;42.138;24.768;2023-02-04T01:09:55;99537.84;;;5.15;47.92
71151;BME280;59071;42.138;24.768;2023-02-04T01:12:20;99535.88;;;5.40;46.86
71151;BME280;59071;42.138;24.768;2023-02-04T01:14:47;99530.81;;;5.30;46.79
71151;BME280;59071;42.138;24.768;2023-02-04T01:17:12;99521.97;;;5.23;46.49
71151;BME280;59071;42.138;24.768;2023-02-04T01:19:37;99512.19;;;5.32;46.16
71151;BME280;59071;42.138;24.768;2023-02-04T01:22:02;99511.88;;;5.26;47.05
71151;BME280;59071;42.138;24.768;2023-02-04T01:24:28;99500.88;;;4.92;48.01
71151;BME280;59071;42.138;24.768;2023-02-04T01:26:53;99489.00;;;4.56;48.14
71151;BME280;59071;42.138;24.768;2023-02-04T01:29:18;99489.16;;;4.94;47.08
71151;BME280;59071;42.138;24.768;2023-02-04T01:31:43;99476.22;;;5.07;47.00
71151;BME280;59071;42.138;24.768;2023-02-04T01:34:09;99469.16;;;5.00;47.81
71151;BME280;59071;42.138;24.768;2023-02-04T01:36:34;99462.03;;;4.77;48.13
71151;BME280;59071;42.138;24.768;2023-02-04T01:38:59;99454.88;;;4.94;48.22
71151;BME280;59071;42.138;24.768;2023-02-04T01:41:25;99443.41;;;4.79;48.85
71151;BME280;59071;42.138;24.768;2023-02-04T01:43:50;99435.97;;;4.82;47.70
71151;BME280;59071;42.138;24.768;2023-02-04T01:46:16;99430.78;;;4.97;47.08
71151;BME280;59071;42.138;24.768;2023-02-04T01:48:41;99431.69;;;5.13;46.78
71151;BME280;59071;42.138;24.768;2023-02-04T01:51:10;99434.72;;;5.01;46.98
71151;BME280;59071;42.138;24.768;2023-02-04T01:53:36;99434.06;;;4.99;47.35
71151;BME280;59071;42.138;24.768;2023-02-04T01:56:18;99432.88;;;4.79;47.39
71151;BME280;59071;42.138;24.768;2023-02-04T01:58:44;99433.50;;;4.81;48.30
71151;BME280;59071;42.138;24.768;2023-02-04T02:01:12;99428.50;;;4.94;48.71
71151;BME280;59071;42.138;24.768;2023-02-04T02:03:37;99426.00;;;5.01;48.52
71151;BME280;59071;42.138;24.768;2023-02-04T02:06:03;99425.63;;;5.27;48.05
71151;BME280;59071;42.138;24.768;2023-02-04T02:08:28;99425.16;;;5.00;48.12
71151;BME280;59071;42.138;24.768;2023-02-04T02:10:53;99415.00;;;4.89;48.81
71151;BME280;59071;42.138;24.768;2023-02-04T02:13:19;99413.63;;;4.70;48.46
71151;BME280;59071;42.138;24.768;2023-02-04T02:15:44;99414.47;;;4.70;48.21
71151;BME280;59071;42.138;24.768;2023-02-04T02:18:10;99413.69;;;4.62;48.33
71151;BME280;59071;42.138;24.768;2023-02-04T02:20:36;99408.81;;;4.82;48.29
71151;BME280;59071;42.138;24.768;2023-02-04T02:23:23;99402.69;;;4.81;48.28
71151;BME280;59071;42.138;24.768;2023-02-04T02:25:47;99407.47;;;4.86;48.11
71151;BME280;59071;42.138;24.768;2023-02-04T02:28:14;99402.22;;;4.78;48.32
71151;BME280;59071;42.138;24.768;2023-02-04T02:30:40;99393.16;;;4.80;47.87
71151;BME280;59071;42.138;24.768;2023-02-04T02:33:06;99389.56;;;4.73;48.42
71151;BME280;59071;42.138;24.768;2023-02-04T02:35:32;99396.94;;;4.78;48.24
71151;BME280;59071;42.138;24.768;2023-02-04T02:37:57;99389.66;;;4.88;48.10
71151;BME280;59071;42.138;24.768;2023-02-04T02:40:22;99388.50;;;4.59;48.92
71151;BME280;59071;42.138;24.768;2023-02-04T02:42:48;99371.91;;;4.82;48.53
71151;BME280;59071;42.138;24.768;2023-02-04T02:45:18;99365.75;;;4.58;48.62
71151;BME280;59071;42.138;24.768;2023-02-04T02:47:45;99366.63;;;4.82;48.49
71151;BME280;59071;42.138;24.768;2023-02-04T02:50:11;99329.69;;;4.59;48.80
71151;BME280;59071;42.138;24.768;2023-02-04T02:52:39;99357.03;;;4.58;49.36
71151;BME280;59071;42.138;24.768;2023-02-04T02:55:06;99359.59;;;4.97;48.60
71151;BME280;59071;42.138;24.768;2023-02-04T02:57:37;99362.50;;;5.02;48.85
71151;BME280;59071;42.138;24.768;2023-02-04T03:00:05;99357.75;;;4.98;49.01
71151;BME280;59071;42.138;24.768;2023-02-04T03:02:34;99350.84;;;4.74;49.36
71151;BME280;59071;42.138;24.768;2023-02-04T03:05:00;99341.13;;;4.97;49.00
71151;BME280;59071;42.138;24.768;2023-02-04T03:07:25;99332.75;;;4.70;48.99
71151;BME280;59071;42.138;24.768;2023-02-04T03:09:51;99325.00;;;4.46;49.75
71151;BME280;59071;42.138;24.768;2023-02-04T03:12:17;99322.22;;;4.70;49.30
71151;BME280;59071;42.138;24.768;2023-02-04T03:14:43;99321.66;;;4.52;50.02
71151;BME280;59071;42.138;24.768;2023-02-04T03:17:08;99320.84;;;4.52;49.98
71151;BME280;59071;42.138;24.768;2023-02-04T03:19:34;99319.16;;;4.27;50.54
71151;BME280;59071;42.138;24.768;2023-02-04T03:22:00;99310.63;;;4.25;49.63
71151;BME280;59071;42.138;24.768;2023-02-04T03:24:26;99310.94;;;4.30;49.59
71151;BME280;59071;42.138;24.768;2023-02-04T03:26:52;99323.34;;;4.45;49.14
71151;BME280;59071;42.138;24.768;2023-02-04T03:29:17;99315.59;;;4.52;48.52
71151;BME280;59071;42.138;24.768;2023-02-04T03:31:43;99318.22;;;4.52;49.61
71151;BME280;59071;42.138;24.768;2023-02-04T03:34:08;99323.44;;;4.60;49.46
71151;BME280;59071;42.138;24.768;2023-02-04T03:36:33;99314.94;;;4.73;49.58
71151;BME280;59071;42.138;24.768;2023-02-04T03:38:59;99315.66;;;4.66;49.73
71151;BME280;59071;42.138;24.768;2023-02-04T03:41:24;99319.72;;;4.46;50.31
71151;BME280;59071;42.138;24.768;2023-02-04T03:43:49;99316.78;;;4.41;50.53
71151;BME280;59071;42.138;24.768;2023-02-04T03:46:14;99309.78;;;4.56;50.69
71151;BME280;59071;42.138;24.768;2023-02-04T03:48:40;99297.66;;;4.70;50.32
71151;BME280;59071;42.138;24.768;2023-02-04T03:51:05;99299.94;;;4.73;50.20
71151;BME280;59071;42.138;24.768;2023-02-04T03:53:30;99290.50;;;4.79;50.15
71151;BME280;59071;42.138;24.768;2023-02-04T03:55:55;99293.53;;;4.90;50.06
71151;BME280;59071;42.138;24.768;2023-02-04T03:58:21;99274.38;;;4.74;50.05
71151;BME280;59071;42.138;24.768;2023-02-04T04:00:46;99275.22;;;4.51;50.80
71151;BME280;59071;42.138;24.768;2023-02-04T04:03:11;99274.00;;;4.62;50.35
71151;BME280;59071;42.138;24.768;2023-02-04T04:05:37;99264.09;;;4.64;50.51
71151;BME280;59071;42.138;24.768;2023-02-04T04:08:02;99266.72;;;4.64;50.04
71151;BME280;59071;42.138;24.768;2023-02-04T04:10:27;99256.09;;;4.72;49.73
71151;BME280;59071;42.138;24.768;2023-02-04T04:12:53;99257.59;;;4.75;49.86
71151;BME280;59071;42.138;24.768;2023-02-04T04:15:18;99247.69;;;4.77;49.69
71151;BME280;59071;42.138;24.768;2023-02-04T04:17:44;99253.06;;;4.60;50.49
71151;BME280;59071;42.138;24.768;2023-02-04T04:20:09;99247.59;;;4.85;49.50
71151;BME280;59071;42.138;24.768;2023-02-04T04:22:34;99236.53;;;4.89;49.54
71151;BME280;59071;42.138;24.768;2023-02-04T04:25:00;99234.69;;;4.52;50.42
71151;BME280;59071;42.138;24.768;2023-02-04T04:27:25;99236.44;;;4.60;50.74
71151;BME280;59071;42.138;24.768;2023-02-04T04:29:50;99251.03;;;4.24;51.33
71151;BME280;59071;42.138;24.768;2023-02-04T04:32:15;99244.13;;;4.23;51.71
71151;BME280;59071;42.138;24.768;2023-02-04T04:34:41;99249.50;;;4.30;51.49
71151;BME280;59071;42.138;24.768;2023-02-04T04:37:06;99246.38;;;4.26;52.08
71151;BME280;59071;42.138;24.768;2023-02-04T04:39:31;99258.28;;;4.45;51.47
71151;BME280;59071;42.138;24.768;2023-02-04T04:41:57;99257.72;;;4.35;51.69
71151;BME280;59071;42.138;24.768;2023-02-04T04:44:22;99252.13;;;4.30;51.21
71151;BME280;59071;42.138;24.768;2023-02-04T04:46:47;99228.25;;;4.31;51.33
71151;BME280;59071;42.138;24.768;2023-02-04T04:49:13;99231.91;;;4.30;51.37
71151;BME280;59071;42.138;24.768;2023-02-04T04:51:38;99230.06;;;4.31;51.17
71151;BME280;59071;42.138;24.768;2023-02-04T04:54:03;99233.19;;;4.11;51.82
71151;BME280;59071;42.138;24.768;2023-02-04T04:56:28;99234.09;;;4.19;51.71
71151;BME280;59071;42.138;24.768;2023-02-04T04:58:54;99222.69;;;4.26;52.46
71151;BME280;59071;42.138;24.768;2023-02-04T05:01:19;99207.94;;;4.40;51.75
71151;BME280;59071;42.138;24.768;2023-02-04T05:03:46;99214.16;;;4.47;51.34
71151;BME280;59071;42.138;24.768;2023-02-04T05:06:11;99216.91;;;4.54;51.65
71151;BME280;59071;42.138;24.768;2023-02-04T05:08:37;99226.44;;;4.55;51.94
71151;BME280;59071;42.138;24.768;2023-02-04T05:11:02;99220.31;;;4.78;50.91
71151;BME280;59071;42.138;24.768;2023-02-04T05:13:27;99224.09;;;4.37;52.03
71151;BME280;59071;42.138;24.768;2023-02-04T05:15:53;99223.53;;;4.50;52.38
71151;BME280;59071;42.138;24.768;2023-02-04T05:18:18;99230.78;;;4.48;52.36
71151;BME280;59071;42.138;24.768;2023-02-04T05:20:43;99225.28;;;4.35;52.23
71151;BME280;59071;42.138;24.768;2023-02-04T05:23:09;99222.47;;;4.36;52.49
71151;BME280;59071;42.138;24.768;2023-02-04T05:25:34;99212.59;;;4.53;52.42
71151;BME280;59071;42.138;24.768;2023-02-04T05:27:59;99212.25;;;4.56;52.59
71151;BME280;59071;42.138;24.768;2023-02-04T05:30:27;99208.19;;;4.30;53.48
71151;BME280;59071;42.138;24.768;2023-02-04T05:32:53;99207.25;;;4.46;52.82
71151;BME280;59071;42.138;24.768;2023-02-04T05:35:18;99215.47;;;4.28;53.03
71151;BME280;59071;42.138;24.768;2023-02-04T05:37:43;99213.41;;;4.39;52.78
71151;BME280;59071;42.138;24.768;2023-02-04T05:40:09;99206.19;;;4.33;52.53
71151;BME280;59071;42.138;24.768;2023-02-04T05:42:34;99207.59;;;4.20;52.98
71151;BME280;59071;42.138;24.768;2023-02-04T05:44:59;99213.31;;;4.24;52.56
71151;BME280;59071;42.138;24.768;2023-02-04T05:47:25;99208.28;;;4.60;51.74
71151;BME280;59071;42.138;24.768;2023-02-04T05:49:50;99208.81;;;4.56;51.64
71151;BME280;59071;42.138;24.768;2023-02-04T05:52:15;99217.22;;;4.74;51.44
71151;BME280;59071;42.138;24.768;2023-02-04T05:54:40;99210.13;;;4.75;50.53
71151;BME280;59071;42.138;24.768;2023-02-04T05:57:06;99215.59;;;4.73;50.24
71151;BME280;59071;42.138;24.768;2023-02-04T05:59:31;99216.56;;;4.72;50.82
71151;BME280;59071;42.138;24.768;2023-02-04T06:01:56;99221.31;;;4.77;50.11
71151;BME280;59071;42.138;24.768;2023-02-04T06:04:22;99227.13;;;4.49;50.54
71151;BME280;59071;42.138;24.768;2023-02-04T06:06:47;99216.56;;;4.72;50.42
71151;BME280;59071;42.138;24.768;2023-02-04T06:09:12;99228.59;;;4.75;50.04
71151;BME280;59071;42.138;24.768;2023-02-04T06:11:38;99227.72;;;4.59;50.34
71151;BME280;59071;42.138;24.768;2023-02-04T06:14:03;99225.50;;;4.71;49.78
71151;BME280;59071;42.138;24.768;2023-02-04T06:16:28;99224.25;;;4.82;49.50
71151;BME280;59071;42.138;24.768;2023-02-04T06:18:53;99225.50;;;4.71;50.12
71151;BME280;59071;42.138;24.768;2023-02-04T06:21:19;99209.13;;;4.76;50.04
71151;BME280;59071;42.138;24.768;2023-02-04T06:23:44;99204.38;;;5.24;49.34
71151;BME280;59071;42.138;24.768;2023-02-04T06:26:10;99206.72;;;5.19;50.01
71151;BME280;59071;42.138;24.768;2023-02-04T06:28:35;99228.53;;;4.98;50.16
71151;BME280;59071;42.138;24.768;2023-02-04T06:31:01;99229.63;;;5.03;50.70
71151;BME280;59071;42.138;24.768;2023-02-04T06:33:26;99224.25;;;4.97;50.42
71151;BME280;59071;42.138;24.768;2023-02-04T06:35:51;99241.28;;;5.09;50.19
71151;BME280;59071;42.138;24.768;2023-02-04T06:38:16;99232.47;;;5.17;50.32
71151;BME280;59071;42.138;24.768;2023-02-04T06:40:42;99238.25;;;7.16;69.59
71151;BME280;59071;42.138;24.768;2023-02-04T06:43:07;99229.56;;;8.32;57.25
71151;BME280;59071;42.138;24.768;2023-02-04T06:45:32;99236.38;;;9.28;63.43
71151;BME280;59071;42.138;24.768;2023-02-04T06:47:58;99243.31;;;9.22;49.81
71151;BME280;59071;42.138;24.768;2023-02-04T06:50:23;99229.84;;;9.17;50.56
71151;BME280;59071;42.138;24.768;2023-02-04T06:52:48;99238.50;;;9.64;44.77
71151;BME280;59071;42.138;24.768;2023-02-04T06:55:14;99239.28;;;9.78;41.32
71151;BME280;59071;42.138;24.768;2023-02-04T06:57:40;99242.06;;;9.31;41.36
71151;BME280;59071;42.138;24.768;2023-02-04T07:00:06;99246.03;;;8.07;43.74
71151;BME280;59071;42.138;24.768;2023-02-04T07:02:31;99248.78;;;7.37;45.74
71151;BME280;59071;42.138;24.768;2023-02-04T07:04:56;99243.69;;;7.08;45.91
71151;BME280;59071;42.138;24.768;2023-02-04T07:07:24;99249.06;;;6.64;48.51
71151;BME280;59071;42.138;24.768;2023-02-04T07:09:49;99263.75;;;6.45;48.11
71151;BME280;59071;42.138;24.768;2023-02-04T07:12:15;99262.97;;;6.52;48.08
71151;BME280;59071;42.138;24.768;2023-02-04T07:14:40;99267.44;;;6.73;47.42
71151;BME280;59071;42.138;24.768;2023-02-04T07:17:05;99266.28;;;7.38;46.80
71151;BME280;59071;42.138;24.768;2023-02-04T07:19:30;99258.22;;;7.18;46.89
71151;BME280;59071;42.138;24.768;2023-02-04T07:21:56;99251.72;;;6.93;46.72
71151;BME280;59071;42.138;24.768;2023-02-04T07:24:22;99256.28;;;6.77;47.02
71151;BME280;59071;42.138;24.768;2023-02-04T07:26:47;99265.63;;;6.52;48.09
71151;BME280;59071;42.138;24.768;2023-02-04T07:29:12;99256.34;;;6.62;47.92
71151;BME280;59071;42.138;24.768;2023-02-04T07:31:38;99262.13;;;6.30;48.91
71151;BME280;59071;42.138;24.768;2023-02-04T07:34:03;99254.47;;;6.35;49.04
71151;BME280;59071;42.138;24.768;2023-02-04T07:36:28;99253.56;;;6.49;49.93
71151;BME280;59071;42.138;24.768;2023-02-04T07:38:53;99263.28;;;6.63;49.78
71151;BME280;59071;42.138;24.768;2023-02-04T07:41:19;99260.56;;;6.78;49.08
71151;BME280;59071;42.138;24.768;2023-02-04T07:43:45;99254.34;;;6.64;50.17
71151;BME280;59071;42.138;24.768;2023-02-04T07:46:10;99250.44;;;6.82;50.59
71151;BME280;59071;42.138;24.768;2023-02-04T07:48:35;99246.75;;;6.83;51.14
71151;BME280;59071;42.138;24.768;2023-02-04T07:51:01;99245.53;;;7.07;51.59
71151;BME280;59071;42.138;24.768;2023-02-04T07:53:26;99230.56;;;7.56;50.81
71151;BME280;59071;42.138;24.768;2023-02-04T07:55:51;99216.03;;;7.93;49.84
71151;BME280;59071;42.138;24.768;2023-02-04T07:58:16;99216.19;;;8.67;48.14
71151;BME280;59071;42.138;24.768;2023-02-04T08:00:42;99205.94;;;8.37;48.69
71151;BME280;59071;42.138;24.768;2023-02-04T08:03:07;99200.69;;;8.84;47.80
71151;BME280;59071;42.138;24.768;2023-02-04T08:05:32;99201.38;;;9.44;46.82
71151;BME280;59071;42.138;24.768;2023-02-04T08:07:58;99205.97;;;9.75;45.71
71151;BME280;59071;42.138;24.768;2023-02-04T08:10:23;99201.25;;;10.23;44.72
71151;BME280;59071;42.138;24.768;2023-02-04T08:12:48;99193.81;;;9.93;44.95
71151;BME280;59071;42.138;24.768;2023-02-04T08:15:13;99196.06;;;9.51;45.77
71151;BME280;59071;42.138;24.768;2023-02-04T08:17:39;99186.09;;;10.23;45.36
71151;BME280;59071;42.138;24.768;2023-02-04T08:20:04;99191.34;;;10.62;43.97
71151;BME280;59071;42.138;24.768;2023-02-04T08:22:29;99181.97;;;10.59;44.04
71151;BME280;59071;42.138;24.768;2023-02-04T08:24:55;99172.81;;;10.16;45.39
71151;BME280;59071;42.138;24.768;2023-02-04T08:27:20;99169.97;;;10.75;44.41
71151;BME280;59071;42.138;24.768;2023-02-04T08:29:45;99164.22;;;10.96;43.71
71151;BME280;59071;42.138;24.768;2023-02-04T08:32:10;99172.47;;;11.32;43.28
71151;BME280;59071;42.138;24.768;2023-02-04T08:34:37;99160.38;;;11.48;42.52
71151;BME280;59071;42.138;24.768;2023-02-04T08:37:03;99151.88;;;11.88;41.37
71151;BME280;59071;42.138;24.768;2023-02-04T08:39:28;99141.25;;;11.21;42.80
71151;BME280;59071;42.138;24.768;2023-02-04T08:41:53;99139.53;;;11.26;42.32
71151;BME280;59071;42.138;24.768;2023-02-04T08:44:18;99136.00;;;11.14;42.29
71151;BME280;59071;42.138;24.768;2023-02-04T08:46:44;99137.84;;;10.95;41.33
71151;BME280;59071;42.138;24.768;2023-02-04T08:49:09;99137.91;;;10.88;41.31
71151;BME280;59071;42.138;24.768;2023-02-04T08:51:34;99147.06;;;10.92;40.43
71151;BME280;59071;42.138;24.768;2023-02-04T08:54:00;99143.53;;;11.35;40.39
71151;BME280;59071;42.138;24.768;2023-02-04T08:56:25;99141.78;;;12.08;38.51
71151;BME280;59071;42.138;24.768;2023-02-04T08:58:50;99153.69;;;11.76;37.89
71151;BME280;59071;42.138;24.768;2023-02-04T09:01:18;99148.06;;;11.35;39.20
71151;BME280;59071;42.138;24.768;2023-02-04T09:03:44;99157.22;;;11.58;38.76
71151;BME280;59071;42.138;24.768;2023-02-04T09:06:09;99143.25;;;11.92;37.86
71151;BME280;59071;42.138;24.768;2023-02-04T09:08:35;99154.97;;;11.73;38.36
71151;BME280;59071;42.138;24.768;2023-02-04T09:11:00;99161.97;;;11.86;37.29
71151;BME280;59071;42.138;24.768;2023-02-04T09:13:25;99156.00;;;11.90;37.81
71151;BME280;59071;42.138;24.768;2023-02-04T09:15:51;99152.19;;;12.52;36.84
71151;BME280;59071;42.138;24.768;2023-02-04T09:18:17;99155.06;;;12.27;36.83
71151;BME280;59071;42.138;24.768;2023-02-04T09:20:44;99159.41;;;11.61;37.07
71151;BME280;59071;42.138;24.768;2023-02-04T09:23:10;99130.75;;;11.44;38.26
71151;BME280;59071;42.138;24.768;2023-02-04T09:25:39;99131.06;;;11.18;38.61
71151;BME280;59071;42.138;24.768;2023-02-04T09:28:05;99130.22;;;10.99;38.83
71151;BME280;59071;42.138;24.768;2023-02-04T09:30:31;99125.31;;;11.32;38.00
71151;BME280;59071;42.138;24.768;2023-02-04T09:32:56;99118.47;;;12.04;37.90
71151;BME280;59071;42.138;24.768;2023-02-04T09:35:21;99116.38;;;11.45;37.40
71151;BME280;59071;42.138;24.768;2023-02-04T09:37:47;99112.31;;;11.73;37.79
71151;BME280;59071;42.138;24.768;2023-02-04T09:40:16;99104.00;;;11.81;37.15
71151;BME280;59071;42.138;24.768;2023-02-04T09:42:42;99113.09;;;12.34;36.40
71151;BME280;59071;42.138;24.768;2023-02-04T09:45:12;99104.72;;;12.19;37.02
71151;BME280;59071;42.138;24.768;2023-02-04T09:47:39;99103.78;;;12.25;37.04
71151;BME280;59071;42.138;24.768;2023-02-04T09:50:08;99082.31;;;12.31;36.74
71151;BME280;59071;42.138;24.768;2023-02-04T09:52:33;99090.53;;;12.06;36.70
71151;BME280;59071;42.138;24.768;2023-02-04T09:54:59;99088.34;;;11.24;38.29
71151;BME280;59071;42.138;24.768;2023-02-04T09:57:24;99096.47;;;10.92;39.33
71151;BME280;59071;42.138;24.768;2023-02-04T09:59:49;99088.19;;;10.64;39.56
71151;BME280;59071;42.138;24.768;2023-02-04T10:02:33;99086.75;;;11.05;39.43
71151;BME280;59071;42.138;24.768;2023-02-04T10:04:58;99078.06;;;11.09;38.45
71151;BME280;59071;42.138;24.768;2023-02-04T10:07:24;99078.50;;;10.69;39.87
71151;BME280;59071;42.138;24.768;2023-02-04T10:09:51;99088.50;;;10.74;39.50
71151;BME280;59071;42.138;24.768;2023-02-04T10:12:18;99079.50;;;11.42;38.00
71151;BME280;59071;42.138;24.768;2023-02-04T10:14:44;99065.00;;;10.89;39.58
71151;BME280;59071;42.138;24.768;2023-02-04T10:17:09;99070.59;;;11.00;39.85
71151;BME280;59071;42.138;24.768;2023-02-04T10:19:35;99069.56;;;11.19;38.47
71151;BME280;59071;42.138;24.768;2023-02-04T10:22:02;99065.06;;;11.01;38.66
71151;BME280;59071;42.138;24.768;2023-02-04T10:24:27;99062.91;;;11.10;38.98
71151;BME280;59071;42.138;24.768;2023-02-04T10:27:04;99070.06;;;11.28;38.96
71151;BME280;59071;42.138;24.768;2023-02-04T10:29:30;99058.06;;;11.98;37.48
71151;BME280;59071;42.138;24.768;2023-02-04T10:31:55;99065.16;;;11.43;38.52
71151;BME280;59071;42.138;24.768;2023-02-04T10:34:22;99065.78;;;11.27;38.58
71151;BME280;59071;42.138;24.768;2023-02-04T10:36:51;99057.59;;;10.91;39.59
71151;BME280;59071;42.138;24.768;2023-02-04T10:39:18;99053.97;;;11.53;38.72
71151;BME280;59071;42.138;24.768;2023-02-04T10:41:48;99049.94;;;11.62;38.56
71151;BME280;59071;42.138;24.768;2023-02-04T10:44:15;99041.16;;;10.94;39.98
71151;BME280;59071;42.138;24.768;2023-02-04T10:46:41;99039.94;;;10.97;39.10
71151;BME280;59071;42.138;24.768;2023-02-04T10:49:16;99031.16;;;11.69;38.83
71151;BME280;59071;42.138;24.768;2023-02-04T10:51:42;99025.72;;;10.48;39.93
71151;BME280;59071;42.138;24.768;2023-02-04T10:54:09;99026.06;;;10.08;41.32
71151;BME280;59071;42.138;24.768;2023-02-04T10:56:55;99018.84;;;10.95;39.83
71151;BME280;59071;42.138;24.768;2023-02-04T10:59:22;99024.00;;;11.69;38.48
71151;BME280;59071;42.138;24.768;2023-02-04T11:01:50;99015.81;;;11.10;40.20
71151;BME280;59071;42.138;24.768;2023-02-04T11:04:16;99018.41;;;10.99;40.59
71151;BME280;59071;42.138;24.768;2023-02-04T11:06:41;99008.22;;;10.77;40.42
71151;BME280;59071;42.138;24.768;2023-02-04T11:09:09;99009.22;;;11.13;39.56
71151;BME280;59071;42.138;24.768;2023-02-04T11:11:35;99000.13;;;11.02;40.48
71151;BME280;59071;42.138;24.768;2023-02-04T11:14:01;98998.91;;;10.49;41.40
71151;BME280;59071;42.138;24.768;2023-02-04T11:18:53;98995.31;;;10.92;41.43
71151;BME280;59071;42.138;24.768;2023-02-04T11:24:20;99002.09;;;10.40;41.77
71151;BME280;59071;42.138;24.768;2023-02-04T11:26:49;98996.03;;;10.51;42.10
71151;BME280;59071;42.138;24.768;2023-02-04T11:32:01;99000.06;;;10.35;43.14
71151;BME280;59071;42.138;24.768;2023-02-04T11:34:28;98996.75;;;10.40;43.22
71151;BME280;59071;42.138;24.768;2023-02-04T11:39:31;98997.06;;;10.68;42.50
71151;BME280;59071;42.138;24.768;2023-02-04T11:41:59;98978.44;;;10.68;43.21
71151;BME280;59071;42.138;24.768;2023-02-04T11:44:25;98989.28;;;10.48;43.86
71151;BME280;59071;42.138;24.768;2023-02-04T11:46:51;98977.47;;;10.44;43.09
71151;BME280;59071;42.138;24.768;2023-02-04T11:49:19;98977.78;;;10.36;42.62
71151;BME280;59071;42.138;24.768;2023-02-04T11:51:45;98977.00;;;10.66;42.22
71151;BME280;59071;42.138;24.768;2023-02-04T11:54:11;98985.66;;;11.28;41.24
71151;BME280;59071;42.138;24.768;2023-02-04T11:56:37;98982.97;;;10.98;42.38
71151;BME280;59071;42.138;24.768;2023-02-04T11:59:02;98964.09;;;10.69;43.00
71151;BME280;59071;42.138;24.768;2023-02-04T12:01:31;98969.19;;;10.89;41.96
71151;BME280;59071;42.138;24.768;2023-02-04T12:03:57;98967.28;;;11.39;42.00
71151;BME280;59071;42.138;24.768;2023-02-04T12:06:24;98976.25;;;10.95;42.47
71151;BME280;59071;42.138;24.768;2023-02-04T12:08:49;98958.47;;;10.59;43.63
71151;BME280;59071;42.138;24.768;2023-02-04T12:11:25;98958.91;;;10.56;43.95
71151;BME280;59071;42.138;24.768;2023-02-04T12:13:54;98961.94;;;10.60;42.92
71151;BME280;59071;42.138;24.768;2023-02-04T12:16:20;98963.56;;;10.42;44.25
71151;BME280;59071;42.138;24.768;2023-02-04T12:18:46;98959.72;;;10.56;44.22
71151;BME280;59071;42.138;24.768;2023-02-04T12:21:11;98952.53;;;10.75;45.12
71151;BME280;59071;42.138;24.768;2023-02-04T12:23:38;98967.75;;;10.87;45.26
71151;BME280;59071;42.138;24.768;2023-02-04T12:26:03;98965.56;;;10.47;46.99
71151;BME280;59071;42.138;24.768;2023-02-04T12:28:29;98960.72;;;10.44;46.45
71151;BME280;59071;42.138;24.768;2023-02-04T12:30:54;98957.97;;;10.69;46.07
71151;BME280;59071;42.138;24.768;2023-02-04T12:33:20;98960.88;;;10.79;46.33
71151;BME280;59071;42.138;24.768;2023-02-04T12:35:46;98967.28;;;10.78;45.90
71151;BME280;59071;42.138;24.768;2023-02-04T12:38:12;98971.41;;;10.74;46.73
71151;BME280;59071;42.138;24.768;2023-02-04T12:40:37;98977.09;;;11.08;46.41
71151;BME280;59071;42.138;24.768;2023-02-04T12:43:02;98978.22;;;10.51;47.25
71151;BME280;59071;42.138;24.768;2023-02-04T12:45:28;98972.78;;;10.21;48.06
71151;BME280;59071;42.138;24.768;2023-02-04T12:47:53;98980.44;;;9.86;49.14
71151;BME280;59071;42.138;24.768;2023-02-04T12:50:19;98989.00;;;9.88;49.42
71151;BME280;59071;42.138;24.768;2023-02-04T12:52:56;98982.06;;;9.62;49.16
71151;BME280;59071;42.138;24.768;2023-02-04T12:55:22;98984.00;;;9.48;49.70
71151;BME280;59071;42.138;24.768;2023-02-04T12:57:48;98981.41;;;9.66;49.23
71151;BME280;59071;42.138;24.768;2023-02-04T13:00:14;98984.13;;;9.85;48.54
71151;BME280;59071;42.138;24.768;2023-02-04T13:02:40;98983.03;;;10.17;47.38